sensor_id;sensor_type;location;lat;lon;timestamp;P1;durP1;ratioP1;P2;durP2;ratioP2
4971;SDS011;2501;51.214;6.768;2022-11-20T00:02:02;30.10;;;18.00;;
4971;SDS011;2501;51.214;6.768;2022-11-20T00:04:31;33.17;;;18.33;;
4971;SDS011;2501;51.214;6.768;2022-11-20T00:06:59;38.22;;;20.60;;
4971;SDS011;2501;51.214;6.768;2022-11-20T00:09:28;30.05;;;17.60;;
4971;SDS011;2501;51.214;6.768;2022-11-20T00:11:56;35.37;;;19.57;;
4971;SDS011;2501;51.214;6.768;2022-11-20T00:14:24;29.77;;;17.88;;
4971;SDS011;2501;51.214;6.768;2022-11-20T00:16:55;25.00;;;15.98;;
4971;SDS011;2501;51.214;6.768;2022-11-20T00:19:24;28.77;;;17.52;;
4971;SDS011;2501;51.214;6.768;2022-11-20T00:21:52;33.60;;;17.65;;
4971;SDS011;2501;51.214;6.768;2022-11-20T00:24:21;54.10;;;22.80;;
4971;SDS011;2501;51.214;6.768;2022-11-20T00:26:49;36.85;;;19.20;;
4971;SDS011;2501;51.214;6.768;2022-11-20T00:29:17;38.95;;;20.20;;
4971;SDS011;2501;51.214;6.768;2022-11-20T00:31:46;48.75;;;23.50;;
4971;SDS011;2501;51.214;6.768;2022-11-20T00:34:17;36.47;;;20.33;;
4971;SDS011;2501;51.214;6.768;2022-11-20T00:36:45;46.22;;;23.23;;
4971;SDS011;2501;51.214;6.768;2022-11-20T00:39:13;46.60;;;22.17;;
4971;SDS011;2501;51.214;6.768;2022-11-20T00:41:42;41.08;;;22.10;;
4971;SDS011;2501;51.214;6.768;2022-11-20T00:44:10;37.63;;;19.40;;
4971;SDS011;2501;51.214;6.768;2022-11-20T00:46:39;29.90;;;17.58;;
4971;SDS011;2501;51.214;6.768;2022-11-20T00:49:07;31.60;;;19.67;;
4971;SDS011;2501;51.214;6.768;2022-11-20T00:51:38;29.52;;;17.70;;
4971;SDS011;2501;51.214;6.768;2022-11-20T00:54:06;54.92;;;25.67;;
4971;SDS011;2501;51.214;6.768;2022-11-20T00:56:35;46.03;;;24.10;;
4971;SDS011;2501;51.214;6.768;2022-11-20T00:59:03;33.70;;;19.42;;
4971;SDS011;2501;51.214;6.768;2022-11-20T01:01:32;44.27;;;21.47;;
4971;SDS011;2501;51.214;6.768;2022-11-20T01:04:00;45.83;;;23.45;;
4971;SDS011;2501;51.214;6.768;2022-11-20T01:06:29;41.65;;;23.00;;
4971;SDS011;2501;51.214;6.768;2022-11-20T01:09:03;56.67;;;27.60;;
4971;SDS011;2501;51.214;6.768;2022-11-20T01:11:33;33.42;;;20.13;;
4971;SDS011;2501;51.214;6.768;2022-11-20T01:14:04;30.92;;;19.30;;
4971;SDS011;2501;51.214;6.768;2022-11-20T01:16:34;31.25;;;19.50;;
4971;SDS011;2501;51.214;6.768;2022-11-20T01:19:06;32.50;;;19.05;;
4971;SDS011;2501;51.214;6.768;2022-11-20T01:21:38;32.00;;;18.75;;
4971;SDS011;2501;51.214;6.768;2022-11-20T01:24:11;31.80;;;18.88;;
4971;SDS011;2501;51.214;6.768;2022-11-20T01:26:41;31.05;;;18.75;;
4971;SDS011;2501;51.214;6.768;2022-11-20T01:29:13;27.70;;;17.07;;
4971;SDS011;2501;51.214;6.768;2022-11-20T01:31:43;29.35;;;18.95;;
4971;SDS011;2501;51.214;6.768;2022-11-20T01:34:13;29.80;;;18.48;;
4971;SDS011;2501;51.214;6.768;2022-11-20T01:36:42;30.15;;;18.15;;
4971;SDS011;2501;51.214;6.768;2022-11-20T01:39:14;28.90;;;18.20;;
4971;SDS011;2501;51.214;6.768;2022-11-20T01:41:44;32.63;;;19.50;;
4971;SDS011;2501;51.214;6.768;2022-11-20T01:47:14;31.05;;;18.75;;
4971;SDS011;2501;51.214;6.768;2022-11-20T01:49:46;27.67;;;17.73;;
4971;SDS011;2501;51.214;6.768;2022-11-20T01:52:18;30.20;;;17.87;;
4971;SDS011;2501;51.214;6.768;2022-11-20T01:54:53;28.85;;;18.30;;
4971;SDS011;2501;51.214;6.768;2022-11-20T01:57:25;31.33;;;18.45;;
4971;SDS011;2501;51.214;6.768;2022-11-20T01:59:59;31.42;;;18.50;;
4971;SDS011;2501;51.214;6.768;2022-11-20T02:02:34;27.33;;;17.40;;
4971;SDS011;2501;51.214;6.768;2022-11-20T02:05:04;31.88;;;18.85;;
4971;SDS011;2501;51.214;6.768;2022-11-20T02:07:39;33.55;;;18.70;;
4971;SDS011;2501;51.214;6.768;2022-11-20T02:10:11;34.35;;;18.95;;
4971;SDS011;2501;51.214;6.768;2022-11-20T02:12:40;31.42;;;18.63;;
4971;SDS011;2501;51.214;6.768;2022-11-20T02:15:21;31.17;;;19.42;;
4971;SDS011;2501;51.214;6.768;2022-11-20T02:17:49;31.85;;;19.25;;
4971;SDS011;2501;51.214;6.768;2022-11-20T02:20:18;31.83;;;17.85;;
4971;SDS011;2501;51.214;6.768;2022-11-20T02:22:47;34.13;;;20.17;;
4971;SDS011;2501;51.214;6.768;2022-11-20T02:25:23;36.25;;;20.20;;
4971;SDS011;2501;51.214;6.768;2022-11-20T02:27:54;32.15;;;19.30;;
4971;SDS011;2501;51.214;6.768;2022-11-20T02:30:23;33.47;;;20.00;;
4971;SDS011;2501;51.214;6.768;2022-11-20T02:32:52;33.85;;;19.98;;
4971;SDS011;2501;51.214;6.768;2022-11-20T02:38:08;32.88;;;18.85;;
4971;SDS011;2501;51.214;6.768;2022-11-20T02:40:40;34.83;;;19.90;;
4971;SDS011;2501;51.214;6.768;2022-11-20T02:43:08;32.17;;;18.48;;
4971;SDS011;2501;51.214;6.768;2022-11-20T02:45:37;30.02;;;18.10;;
4971;SDS011;2501;51.214;6.768;2022-11-20T02:48:06;32.47;;;19.90;;
4971;SDS011;2501;51.214;6.768;2022-11-20T02:50:36;39.05;;;20.95;;
4971;SDS011;2501;51.214;6.768;2022-11-20T02:53:06;35.60;;;21.02;;
4971;SDS011;2501;51.214;6.768;2022-11-20T02:55:35;34.67;;;19.73;;
4971;SDS011;2501;51.214;6.768;2022-11-20T02:58:06;33.05;;;20.60;;
4971;SDS011;2501;51.214;6.768;2022-11-20T03:00:35;31.55;;;19.80;;
4971;SDS011;2501;51.214;6.768;2022-11-20T03:03:03;37.80;;;20.85;;
4971;SDS011;2501;51.214;6.768;2022-11-20T03:05:32;33.28;;;19.60;;
4971;SDS011;2501;51.214;6.768;2022-11-20T03:08:00;32.67;;;19.70;;
4971;SDS011;2501;51.214;6.768;2022-11-20T03:10:29;36.42;;;20.00;;
4971;SDS011;2501;51.214;6.768;2022-11-20T03:12:57;34.60;;;19.95;;
4971;SDS011;2501;51.214;6.768;2022-11-20T03:15:28;34.40;;;19.83;;
4971;SDS011;2501;51.214;6.768;2022-11-20T03:17:56;36.33;;;19.85;;
4971;SDS011;2501;51.214;6.768;2022-11-20T03:20:25;33.92;;;19.40;;
4971;SDS011;2501;51.214;6.768;2022-11-20T03:22:53;29.50;;;18.38;;
4971;SDS011;2501;51.214;6.768;2022-11-20T03:25:22;33.30;;;19.20;;
4971;SDS011;2501;51.214;6.768;2022-11-20T03:27:51;33.17;;;19.90;;
4971;SDS011;2501;51.214;6.768;2022-11-20T03:30:19;31.85;;;19.02;;
4971;SDS011;2501;51.214;6.768;2022-11-20T03:32:52;35.00;;;19.50;;
4971;SDS011;2501;51.214;6.768;2022-11-20T03:35:20;32.38;;;19.27;;
4971;SDS011;2501;51.214;6.768;2022-11-20T03:37:49;33.10;;;19.20;;
4971;SDS011;2501;51.214;6.768;2022-11-20T03:40:17;35.22;;;19.67;;
4971;SDS011;2501;51.214;6.768;2022-11-20T03:42:46;32.90;;;19.00;;
4971;SDS011;2501;51.214;6.768;2022-11-20T03:45:15;30.63;;;18.92;;
4971;SDS011;2501;51.214;6.768;2022-11-20T03:47:45;32.13;;;18.08;;
4971;SDS011;2501;51.214;6.768;2022-11-20T03:50:16;36.88;;;19.33;;
4971;SDS011;2501;51.214;6.768;2022-11-20T03:52:44;32.40;;;18.80;;
4971;SDS011;2501;51.214;6.768;2022-11-20T03:55:13;33.00;;;18.77;;
4971;SDS011;2501;51.214;6.768;2022-11-20T03:57:41;30.20;;;18.45;;
4971;SDS011;2501;51.214;6.768;2022-11-20T04:00:10;28.13;;;18.10;;
4971;SDS011;2501;51.214;6.768;2022-11-20T04:02:40;31.73;;;19.13;;
4971;SDS011;2501;51.214;6.768;2022-11-20T04:05:08;30.42;;;18.63;;
4971;SDS011;2501;51.214;6.768;2022-11-20T04:07:39;28.25;;;16.92;;
4971;SDS011;2501;51.214;6.768;2022-11-20T04:10:07;32.90;;;18.30;;
4971;SDS011;2501;51.214;6.768;2022-11-20T04:12:36;32.83;;;20.03;;
4971;SDS011;2501;51.214;6.768;2022-11-20T04:15:05;33.60;;;19.02;;
4971;SDS011;2501;51.214;6.768;2022-11-20T04:17:34;27.70;;;17.60;;
4971;SDS011;2501;51.214;6.768;2022-11-20T04:20:02;30.27;;;18.00;;
4971;SDS011;2501;51.214;6.768;2022-11-20T04:22:31;31.85;;;17.90;;
4971;SDS011;2501;51.214;6.768;2022-11-20T04:25:03;30.42;;;18.17;;
4971;SDS011;2501;51.214;6.768;2022-11-20T04:27:32;30.10;;;17.47;;
4971;SDS011;2501;51.214;6.768;2022-11-20T04:30:00;31.92;;;18.65;;
4971;SDS011;2501;51.214;6.768;2022-11-20T04:32:29;27.17;;;17.73;;
4971;SDS011;2501;51.214;6.768;2022-11-20T04:34:57;25.45;;;16.10;;
4971;SDS011;2501;51.214;6.768;2022-11-20T04:37:25;30.60;;;17.98;;
4971;SDS011;2501;51.214;6.768;2022-11-20T04:39:54;27.20;;;15.77;;
4971;SDS011;2501;51.214;6.768;2022-11-20T04:42:25;27.30;;;16.33;;
4971;SDS011;2501;51.214;6.768;2022-11-20T04:44:56;32.28;;;16.65;;
4971;SDS011;2501;51.214;6.768;2022-11-20T04:47:25;31.52;;;16.90;;
4971;SDS011;2501;51.214;6.768;2022-11-20T04:49:54;26.33;;;16.75;;
4971;SDS011;2501;51.214;6.768;2022-11-20T04:52:22;31.90;;;16.93;;
4971;SDS011;2501;51.214;6.768;2022-11-20T04:54:51;28.60;;;17.15;;
4971;SDS011;2501;51.214;6.768;2022-11-20T04:57:20;32.10;;;17.25;;
4971;SDS011;2501;51.214;6.768;2022-11-20T04:59:51;27.52;;;16.70;;
4971;SDS011;2501;51.214;6.768;2022-11-20T05:02:20;32.17;;;16.98;;
4971;SDS011;2501;51.214;6.768;2022-11-20T05:04:48;32.00;;;18.20;;
4971;SDS011;2501;51.214;6.768;2022-11-20T05:07:17;29.63;;;16.73;;
4971;SDS011;2501;51.214;6.768;2022-11-20T05:09:45;29.02;;;16.35;;
4971;SDS011;2501;51.214;6.768;2022-11-20T05:12:14;29.27;;;17.52;;
4971;SDS011;2501;51.214;6.768;2022-11-20T05:14:42;30.45;;;17.25;;
4971;SDS011;2501;51.214;6.768;2022-11-20T05:17:13;28.65;;;17.70;;
4971;SDS011;2501;51.214;6.768;2022-11-20T05:19:41;29.58;;;16.80;;
4971;SDS011;2501;51.214;6.768;2022-11-20T05:22:10;29.42;;;17.23;;
4971;SDS011;2501;51.214;6.768;2022-11-20T05:24:38;30.75;;;18.10;;
4971;SDS011;2501;51.214;6.768;2022-11-20T05:27:07;29.45;;;16.98;;
4971;SDS011;2501;51.214;6.768;2022-11-20T05:29:35;34.85;;;18.05;;
4971;SDS011;2501;51.214;6.768;2022-11-20T05:32:04;30.60;;;17.45;;
4971;SDS011;2501;51.214;6.768;2022-11-20T05:34:37;28.15;;;17.10;;
4971;SDS011;2501;51.214;6.768;2022-11-20T05:37:05;35.85;;;18.80;;
4971;SDS011;2501;51.214;6.768;2022-11-20T05:39:34;33.30;;;18.15;;
4971;SDS011;2501;51.214;6.768;2022-11-20T05:42:02;33.13;;;18.88;;
4971;SDS011;2501;51.214;6.768;2022-11-20T05:44:46;30.15;;;16.80;;
4971;SDS011;2501;51.214;6.768;2022-11-20T05:47:14;28.67;;;17.25;;
4971;SDS011;2501;51.214;6.768;2022-11-20T05:49:45;30.45;;;17.90;;
4971;SDS011;2501;51.214;6.768;2022-11-20T05:52:13;27.85;;;17.92;;
4971;SDS011;2501;51.214;6.768;2022-11-20T05:54:42;31.88;;;18.30;;
4971;SDS011;2501;51.214;6.768;2022-11-20T05:57:10;29.73;;;17.50;;
4971;SDS011;2501;51.214;6.768;2022-11-20T05:59:39;29.48;;;17.77;;
4971;SDS011;2501;51.214;6.768;2022-11-20T06:02:07;29.00;;;17.25;;
4971;SDS011;2501;51.214;6.768;2022-11-20T06:04:35;32.30;;;18.58;;
4971;SDS011;2501;51.214;6.768;2022-11-20T06:07:07;27.35;;;17.50;;
4971;SDS011;2501;51.214;6.768;2022-11-20T06:09:35;30.73;;;18.33;;
4971;SDS011;2501;51.214;6.768;2022-11-20T06:12:04;28.38;;;17.48;;
4971;SDS011;2501;51.214;6.768;2022-11-20T06:14:33;34.20;;;20.00;;
4971;SDS011;2501;51.214;6.768;2022-11-20T06:17:01;32.83;;;19.52;;
4971;SDS011;2501;51.214;6.768;2022-11-20T06:19:30;32.47;;;19.42;;
4971;SDS011;2501;51.214;6.768;2022-11-20T06:21:58;29.67;;;18.70;;
4971;SDS011;2501;51.214;6.768;2022-11-20T06:24:29;28.73;;;18.48;;
4971;SDS011;2501;51.214;6.768;2022-11-20T06:26:57;29.08;;;18.60;;
4971;SDS011;2501;51.214;6.768;2022-11-20T06:29:26;34.55;;;19.25;;
4971;SDS011;2501;51.214;6.768;2022-11-20T06:31:54;32.88;;;20.02;;
4971;SDS011;2501;51.214;6.768;2022-11-20T06:34:23;35.05;;;19.83;;
4971;SDS011;2501;51.214;6.768;2022-11-20T06:36:51;32.85;;;20.05;;
4971;SDS011;2501;51.214;6.768;2022-11-20T06:39:19;35.13;;;21.15;;
4971;SDS011;2501;51.214;6.768;2022-11-20T06:41:50;33.22;;;19.13;;
4971;SDS011;2501;51.214;6.768;2022-11-20T06:44:19;33.72;;;19.45;;
4971;SDS011;2501;51.214;6.768;2022-11-20T06:46:47;31.67;;;17.20;;
4971;SDS011;2501;51.214;6.768;2022-11-20T06:49:15;32.13;;;18.88;;
4971;SDS011;2501;51.214;6.768;2022-11-20T06:51:44;30.30;;;18.58;;
4971;SDS011;2501;51.214;6.768;2022-11-20T06:54:12;27.77;;;16.92;;
4971;SDS011;2501;51.214;6.768;2022-11-20T06:56:41;27.33;;;16.73;;
4971;SDS011;2501;51.214;6.768;2022-11-20T06:59:12;25.83;;;16.23;;
4971;SDS011;2501;51.214;6.768;2022-11-20T07:01:40;23.23;;;15.10;;
4971;SDS011;2501;51.214;6.768;2022-11-20T07:04:09;28.05;;;17.40;;
4971;SDS011;2501;51.214;6.768;2022-11-20T07:06:37;29.92;;;17.70;;
4971;SDS011;2501;51.214;6.768;2022-11-20T07:09:05;27.27;;;16.35;;
4971;SDS011;2501;51.214;6.768;2022-11-20T07:11:34;27.42;;;15.65;;
4971;SDS011;2501;51.214;6.768;2022-11-20T07:14:02;27.65;;;16.70;;
4971;SDS011;2501;51.214;6.768;2022-11-20T07:16:33;30.67;;;17.30;;
4971;SDS011;2501;51.214;6.768;2022-11-20T07:19:02;28.05;;;15.93;;
4971;SDS011;2501;51.214;6.768;2022-11-20T07:21:30;30.50;;;16.40;;
4971;SDS011;2501;51.214;6.768;2022-11-20T07:23:58;31.87;;;17.40;;
4971;SDS011;2501;51.214;6.768;2022-11-20T07:26:27;26.23;;;17.10;;
4971;SDS011;2501;51.214;6.768;2022-11-20T07:28:55;28.88;;;17.75;;
4971;SDS011;2501;51.214;6.768;2022-11-20T07:31:24;25.03;;;16.50;;
4971;SDS011;2501;51.214;6.768;2022-11-20T07:33:55;29.52;;;17.45;;
4971;SDS011;2501;51.214;6.768;2022-11-20T07:36:23;30.43;;;17.83;;
4971;SDS011;2501;51.214;6.768;2022-11-20T07:38:51;29.45;;;17.73;;
4971;SDS011;2501;51.214;6.768;2022-11-20T07:41:20;29.30;;;17.77;;
4971;SDS011;2501;51.214;6.768;2022-11-20T07:43:48;27.65;;;17.52;;
4971;SDS011;2501;51.214;6.768;2022-11-20T07:46:17;29.40;;;16.83;;
4971;SDS011;2501;51.214;6.768;2022-11-20T07:48:45;32.03;;;18.25;;
4971;SDS011;2501;51.214;6.768;2022-11-20T07:51:16;27.90;;;18.08;;
4971;SDS011;2501;51.214;6.768;2022-11-20T07:53:44;35.67;;;20.05;;
4971;SDS011;2501;51.214;6.768;2022-11-20T07:56:13;34.72;;;20.42;;
4971;SDS011;2501;51.214;6.768;2022-11-20T07:58:41;36.00;;;20.80;;
4971;SDS011;2501;51.214;6.768;2022-11-20T08:01:10;32.60;;;20.55;;
4971;SDS011;2501;51.214;6.768;2022-11-20T08:03:38;33.45;;;19.17;;
4971;SDS011;2501;51.214;6.768;2022-11-20T08:06:07;34.78;;;20.45;;
4971;SDS011;2501;51.214;6.768;2022-11-20T08:08:38;36.92;;;20.38;;
4971;SDS011;2501;51.214;6.768;2022-11-20T08:11:06;35.88;;;20.98;;
4971;SDS011;2501;51.214;6.768;2022-11-20T08:13:47;36.90;;;20.90;;
4971;SDS011;2501;51.214;6.768;2022-11-20T08:16:28;34.05;;;20.70;;
4971;SDS011;2501;51.214;6.768;2022-11-20T08:18:56;37.20;;;20.40;;
4971;SDS011;2501;51.214;6.768;2022-11-20T08:21:25;37.28;;;21.40;;
4971;SDS011;2501;51.214;6.768;2022-11-20T08:23:57;30.83;;;20.17;;
4971;SDS011;2501;51.214;6.768;2022-11-20T08:26:26;33.47;;;19.67;;
4971;SDS011;2501;51.214;6.768;2022-11-20T08:28:54;32.13;;;20.15;;
4971;SDS011;2501;51.214;6.768;2022-11-20T08:31:23;39.85;;;21.40;;
4971;SDS011;2501;51.214;6.768;2022-11-20T08:33:54;36.20;;;21.15;;
4971;SDS011;2501;51.214;6.768;2022-11-20T08:36:23;36.40;;;22.00;;
4971;SDS011;2501;51.214;6.768;2022-11-20T08:38:54;38.42;;;22.45;;
4971;SDS011;2501;51.214;6.768;2022-11-20T08:41:26;33.42;;;20.45;;
4971;SDS011;2501;51.214;6.768;2022-11-20T08:43:58;35.42;;;21.30;;
4971;SDS011;2501;51.214;6.768;2022-11-20T08:46:31;36.65;;;20.70;;
4971;SDS011;2501;51.214;6.768;2022-11-20T08:49:02;37.75;;;22.25;;
4971;SDS011;2501;51.214;6.768;2022-11-20T08:51:30;39.90;;;22.67;;
4971;SDS011;2501;51.214;6.768;2022-11-20T08:54:02;42.63;;;22.27;;
4971;SDS011;2501;51.214;6.768;2022-11-20T08:56:31;37.33;;;22.60;;
4971;SDS011;2501;51.214;6.768;2022-11-20T08:59:00;38.60;;;21.90;;
4971;SDS011;2501;51.214;6.768;2022-11-20T09:01:29;38.75;;;22.88;;
4971;SDS011;2501;51.214;6.768;2022-11-20T09:03:57;37.15;;;22.33;;
4971;SDS011;2501;51.214;6.768;2022-11-20T09:06:26;37.63;;;21.85;;
4971;SDS011;2501;51.214;6.768;2022-11-20T09:08:55;37.08;;;22.08;;
4971;SDS011;2501;51.214;6.768;2022-11-20T09:11:26;44.88;;;24.73;;
4971;SDS011;2501;51.214;6.768;2022-11-20T09:13:54;37.50;;;22.90;;
4971;SDS011;2501;51.214;6.768;2022-11-20T09:16:23;35.57;;;20.90;;
4971;SDS011;2501;51.214;6.768;2022-11-20T09:18:51;34.55;;;20.98;;
4971;SDS011;2501;51.214;6.768;2022-11-20T09:21:20;39.60;;;22.58;;
4971;SDS011;2501;51.214;6.768;2022-11-20T09:23:48;35.13;;;21.83;;
4971;SDS011;2501;51.214;6.768;2022-11-20T09:26:17;36.28;;;21.52;;
4971;SDS011;2501;51.214;6.768;2022-11-20T09:28:48;36.10;;;21.63;;
4971;SDS011;2501;51.214;6.768;2022-11-20T09:31:19;34.63;;;21.10;;
4971;SDS011;2501;51.214;6.768;2022-11-20T09:33:51;35.03;;;20.37;;
4971;SDS011;2501;51.214;6.768;2022-11-20T09:36:19;34.38;;;21.48;;
4971;SDS011;2501;51.214;6.768;2022-11-20T09:38:48;32.78;;;19.83;;
4971;SDS011;2501;51.214;6.768;2022-11-20T09:41:24;45.95;;;27.15;;
4971;SDS011;2501;51.214;6.768;2022-11-20T09:44:07;30.83;;;19.00;;
4971;SDS011;2501;51.214;6.768;2022-11-20T09:46:56;31.95;;;19.02;;
4971;SDS011;2501;51.214;6.768;2022-11-20T09:49:32;30.80;;;18.40;;
4971;SDS011;2501;51.214;6.768;2022-11-20T09:52:22;31.10;;;19.02;;
4971;SDS011;2501;51.214;6.768;2022-11-20T09:55:00;30.95;;;19.48;;
4971;SDS011;2501;51.214;6.768;2022-11-20T09:57:32;30.60;;;18.67;;
4971;SDS011;2501;51.214;6.768;2022-11-20T10:00:09;39.20;;;22.47;;
4971;SDS011;2501;51.214;6.768;2022-11-20T10:02:41;30.80;;;19.48;;
4971;SDS011;2501;51.214;6.768;2022-11-20T10:05:18;30.55;;;18.10;;
4971;SDS011;2501;51.214;6.768;2022-11-20T10:07:50;29.70;;;18.75;;
4971;SDS011;2501;51.214;6.768;2022-11-20T10:10:28;30.63;;;18.40;;
4971;SDS011;2501;51.214;6.768;2022-11-20T10:13:05;28.83;;;16.98;;
4971;SDS011;2501;51.214;6.768;2022-11-20T10:15:50;25.95;;;16.05;;
4971;SDS011;2501;51.214;6.768;2022-11-20T10:18:29;31.00;;;17.90;;
4971;SDS011;2501;51.214;6.768;2022-11-20T10:21:08;28.73;;;17.75;;
4971;SDS011;2501;51.214;6.768;2022-11-20T10:23:59;30.73;;;17.20;;
4971;SDS011;2501;51.214;6.768;2022-11-20T10:26:38;30.42;;;18.02;;
4971;SDS011;2501;51.214;6.768;2022-11-20T10:29:16;30.70;;;18.60;;
4971;SDS011;2501;51.214;6.768;2022-11-20T10:31:51;32.00;;;19.55;;
4971;SDS011;2501;51.214;6.768;2022-11-20T10:34:25;31.30;;;19.02;;
4971;SDS011;2501;51.214;6.768;2022-11-20T10:36:58;28.77;;;17.92;;
4971;SDS011;2501;51.214;6.768;2022-11-20T10:39:32;33.63;;;19.50;;
4971;SDS011;2501;51.214;6.768;2022-11-20T10:42:08;31.00;;;20.05;;
4971;SDS011;2501;51.214;6.768;2022-11-20T10:44:39;36.95;;;19.50;;
4971;SDS011;2501;51.214;6.768;2022-11-20T10:47:27;31.83;;;19.25;;
4971;SDS011;2501;51.214;6.768;2022-11-20T10:49:58;32.42;;;19.17;;
4971;SDS011;2501;51.214;6.768;2022-11-20T10:52:34;31.35;;;19.00;;
4971;SDS011;2501;51.214;6.768;2022-11-20T10:55:11;32.00;;;19.73;;
4971;SDS011;2501;51.214;6.768;2022-11-20T10:57:54;35.58;;;20.15;;
4971;SDS011;2501;51.214;6.768;2022-11-20T11:00:30;34.75;;;20.17;;
4971;SDS011;2501;51.214;6.768;2022-11-20T11:03:01;36.40;;;20.90;;
4971;SDS011;2501;51.214;6.768;2022-11-20T11:05:32;32.03;;;19.80;;
4971;SDS011;2501;51.214;6.768;2022-11-20T11:08:08;35.30;;;20.98;;
4971;SDS011;2501;51.214;6.768;2022-11-20T11:10:43;35.10;;;19.98;;
4971;SDS011;2501;51.214;6.768;2022-11-20T11:13:20;34.42;;;20.42;;
4971;SDS011;2501;51.214;6.768;2022-11-20T11:15:50;34.03;;;20.40;;
4971;SDS011;2501;51.214;6.768;2022-11-20T11:18:27;37.60;;;20.38;;
4971;SDS011;2501;51.214;6.768;2022-11-20T11:20:59;36.20;;;20.45;;
4971;SDS011;2501;51.214;6.768;2022-11-20T11:23:30;33.33;;;19.15;;
4971;SDS011;2501;51.214;6.768;2022-11-20T11:26:02;39.55;;;21.13;;
4971;SDS011;2501;51.214;6.768;2022-11-20T11:28:32;33.58;;;18.95;;
4971;SDS011;2501;51.214;6.768;2022-11-20T11:31:01;33.35;;;19.35;;
4971;SDS011;2501;51.214;6.768;2022-11-20T11:33:32;36.83;;;20.00;;
4971;SDS011;2501;51.214;6.768;2022-11-20T11:36:02;30.08;;;18.35;;
4971;SDS011;2501;51.214;6.768;2022-11-20T11:38:43;38.22;;;21.08;;
4971;SDS011;2501;51.214;6.768;2022-11-20T11:41:12;35.60;;;21.40;;
4971;SDS011;2501;51.214;6.768;2022-11-20T11:43:49;32.13;;;19.05;;
4971;SDS011;2501;51.214;6.768;2022-11-20T11:46:33;35.60;;;19.88;;
4971;SDS011;2501;51.214;6.768;2022-11-20T11:49:14;32.33;;;19.00;;
4971;SDS011;2501;51.214;6.768;2022-11-20T11:51:51;35.05;;;19.77;;
4971;SDS011;2501;51.214;6.768;2022-11-20T11:54:28;35.08;;;20.52;;
4971;SDS011;2501;51.214;6.768;2022-11-20T11:57:03;34.00;;;20.17;;
4971;SDS011;2501;51.214;6.768;2022-11-20T11:59:43;32.25;;;19.52;;
4971;SDS011;2501;51.214;6.768;2022-11-20T12:02:24;35.55;;;20.38;;
4971;SDS011;2501;51.214;6.768;2022-11-20T12:05:03;36.05;;;20.40;;
4971;SDS011;2501;51.214;6.768;2022-11-20T12:07:39;44.80;;;25.90;;
4971;SDS011;2501;51.214;6.768;2022-11-20T12:10:13;37.45;;;22.63;;
4971;SDS011;2501;51.214;6.768;2022-11-20T12:12:50;35.73;;;21.30;;
4971;SDS011;2501;51.214;6.768;2022-11-20T12:15:25;33.00;;;19.80;;
4971;SDS011;2501;51.214;6.768;2022-11-20T12:17:57;35.37;;;20.40;;
4971;SDS011;2501;51.214;6.768;2022-11-20T12:20:28;33.83;;;20.05;;
4971;SDS011;2501;51.214;6.768;2022-11-20T12:23:02;39.50;;;21.20;;
4971;SDS011;2501;51.214;6.768;2022-11-20T12:25:36;39.08;;;21.75;;
4971;SDS011;2501;51.214;6.768;2022-11-20T12:28:13;39.22;;;20.73;;
4971;SDS011;2501;51.214;6.768;2022-11-20T12:30:54;38.50;;;21.98;;
4971;SDS011;2501;51.214;6.768;2022-11-20T12:33:47;32.50;;;18.83;;
4971;SDS011;2501;51.214;6.768;2022-11-20T12:36:31;34.75;;;21.45;;
4971;SDS011;2501;51.214;6.768;2022-11-20T12:39:11;49.77;;;28.47;;
4971;SDS011;2501;51.214;6.768;2022-11-20T12:51:24;43.65;;;24.30;;
4971;SDS011;2501;51.214;6.768;2022-11-20T12:54:11;41.45;;;21.60;;
4971;SDS011;2501;51.214;6.768;2022-11-20T12:57:00;39.78;;;22.40;;
4971;SDS011;2501;51.214;6.768;2022-11-20T12:59:47;49.65;;;25.85;;
4971;SDS011;2501;51.214;6.768;2022-11-20T13:02:38;39.42;;;22.63;;
4971;SDS011;2501;51.214;6.768;2022-11-20T13:05:24;40.28;;;21.60;;
4971;SDS011;2501;51.214;6.768;2022-11-20T13:08:02;44.75;;;23.45;;
4971;SDS011;2501;51.214;6.768;2022-11-20T13:10:32;42.30;;;23.70;;
4971;SDS011;2501;51.214;6.768;2022-11-20T13:13:07;51.15;;;24.00;;
4971;SDS011;2501;51.214;6.768;2022-11-20T13:15:47;45.42;;;25.27;;
4971;SDS011;2501;51.214;6.768;2022-11-20T13:18:22;46.15;;;25.17;;
4971;SDS011;2501;51.214;6.768;2022-11-20T13:20:50;47.30;;;27.27;;
4971;SDS011;2501;51.214;6.768;2022-11-20T13:23:27;54.05;;;29.60;;
4971;SDS011;2501;51.214;6.768;2022-11-20T13:26:03;41.83;;;23.52;;
4971;SDS011;2501;51.214;6.768;2022-11-20T13:28:33;46.50;;;26.02;;
4971;SDS011;2501;51.214;6.768;2022-11-20T13:31:02;44.40;;;24.30;;
4971;SDS011;2501;51.214;6.768;2022-11-20T13:33:32;42.90;;;25.33;;
4971;SDS011;2501;51.214;6.768;2022-11-20T13:36:03;44.15;;;23.42;;
4971;SDS011;2501;51.214;6.768;2022-11-20T13:38:43;48.20;;;26.63;;
4971;SDS011;2501;51.214;6.768;2022-11-20T13:41:22;46.50;;;25.17;;
4971;SDS011;2501;51.214;6.768;2022-11-20T13:44:04;43.97;;;24.23;;
4971;SDS011;2501;51.214;6.768;2022-11-20T13:46:39;42.95;;;23.83;;
4971;SDS011;2501;51.214;6.768;2022-11-20T13:49:16;53.83;;;28.55;;
4971;SDS011;2501;51.214;6.768;2022-11-20T13:51:50;52.50;;;28.00;;
4971;SDS011;2501;51.214;6.768;2022-11-20T14:00:23;50.40;;;26.67;;
4971;SDS011;2501;51.214;6.768;2022-11-20T14:02:58;52.37;;;28.23;;
4971;SDS011;2501;51.214;6.768;2022-11-20T14:05:35;49.10;;;26.08;;
4971;SDS011;2501;51.214;6.768;2022-11-20T14:08:12;52.37;;;27.70;;
4971;SDS011;2501;51.214;6.768;2022-11-20T14:10:49;50.25;;;26.75;;
4971;SDS011;2501;51.214;6.768;2022-11-20T14:13:20;49.83;;;26.07;;
4971;SDS011;2501;51.214;6.768;2022-11-20T14:15:56;50.58;;;25.98;;
4971;SDS011;2501;51.214;6.768;2022-11-20T14:18:25;49.03;;;26.02;;
4971;SDS011;2501;51.214;6.768;2022-11-20T14:20:55;52.53;;;27.17;;
4971;SDS011;2501;51.214;6.768;2022-11-20T14:23:24;55.58;;;27.20;;
4971;SDS011;2501;51.214;6.768;2022-11-20T14:25:54;49.00;;;25.10;;
4971;SDS011;2501;51.214;6.768;2022-11-20T14:28:27;58.03;;;28.67;;
4971;SDS011;2501;51.214;6.768;2022-11-20T14:30:57;53.42;;;25.90;;
4971;SDS011;2501;51.214;6.768;2022-11-20T14:33:31;44.45;;;24.48;;
4971;SDS011;2501;51.214;6.768;2022-11-20T14:36:01;47.20;;;24.15;;
4971;SDS011;2501;51.214;6.768;2022-11-20T14:38:31;42.97;;;23.95;;
4971;SDS011;2501;51.214;6.768;2022-11-20T14:41:07;52.00;;;25.37;;
4971;SDS011;2501;51.214;6.768;2022-11-20T14:43:49;47.72;;;25.40;;
4971;SDS011;2501;51.214;6.768;2022-11-20T14:46:22;46.40;;;25.00;;
4971;SDS011;2501;51.214;6.768;2022-11-20T14:48:52;48.55;;;26.67;;
4971;SDS011;2501;51.214;6.768;2022-11-20T14:51:25;45.42;;;25.08;;
4971;SDS011;2501;51.214;6.768;2022-11-20T14:54:07;42.47;;;25.25;;
4971;SDS011;2501;51.214;6.768;2022-11-20T14:56:36;42.70;;;23.60;;
4971;SDS011;2501;51.214;6.768;2022-11-20T14:59:08;38.70;;;22.92;;
4971;SDS011;2501;51.214;6.768;2022-11-20T15:01:37;101.72;;;56.10;;
4971;SDS011;2501;51.214;6.768;2022-11-20T15:04:07;38.65;;;22.20;;
4971;SDS011;2501;51.214;6.768;2022-11-20T15:06:48;40.00;;;22.52;;
4971;SDS011;2501;51.214;6.768;2022-11-20T15:09:18;38.57;;;22.00;;
4971;SDS011;2501;51.214;6.768;2022-11-20T15:11:53;40.63;;;23.23;;
4971;SDS011;2501;51.214;6.768;2022-11-20T15:14:27;38.40;;;21.27;;
4971;SDS011;2501;51.214;6.768;2022-11-20T15:16:57;36.50;;;20.42;;
4971;SDS011;2501;51.214;6.768;2022-11-20T15:19:27;40.25;;;21.98;;
4971;SDS011;2501;51.214;6.768;2022-11-20T15:21:56;46.30;;;24.08;;
4971;SDS011;2501;51.214;6.768;2022-11-20T15:24:25;49.20;;;24.25;;
4971;SDS011;2501;51.214;6.768;2022-11-20T15:26:53;36.60;;;20.50;;
4971;SDS011;2501;51.214;6.768;2022-11-20T15:29:22;40.97;;;23.77;;
4971;SDS011;2501;51.214;6.768;2022-11-20T15:31:54;38.90;;;20.88;;
4971;SDS011;2501;51.214;6.768;2022-11-20T15:34:22;41.80;;;22.70;;
4971;SDS011;2501;51.214;6.768;2022-11-20T15:36:51;41.05;;;21.38;;